KALX/ALX METAR and TAF weather

Enter ICAO airport designator
Station Type Date Time Source
KALX METAR 2020/07/14 16:15 UTC NOAA

KALX 141615Z AUTO 04004KT 10SM SCT041 SCT085 30/22 A3004 RMK AO2 T03040224


Station Type Date Time Source
KALX Decoded METAR 2020/07/14 16:15 UTC NOAA

Alexander City, Thomas C Russell Field Airport, AL, United States (KALX) 32-54-53N 085-57-46W
Jul 14, 2020 - 12:15 PM EDT / 2020.07.14 1615 UTC
Wind: from the NE (040 degrees) at 5 MPH (4 KT):0
Visibility: 10 mile(s):0
Sky conditions: partly cloudy
Temperature: 86.7 F (30.4 C)
Heat index: 93.2 F (34.0 C):1
Dew Point: 72.3 F (22.4 C)
Relative Humidity: 62%
Pressure (altimeter): 30.04 in. Hg (1017 hPa)
ob: KALX 141615Z AUTO 04004KT 10SM SCT041 SCT085 30/22 A3004 RMK AO2 T03040224
cycle: 16

Station Type Date Time Source
KALX TAF UTC NOAA

Error!

Example: see airport list